sensor_id;sensor_type;location;lat;lon;timestamp;P1;durP1;ratioP1;P2;durP2;ratioP2
79361;SDS011;68830;47.566;19.012;2023-05-21T00:00:44;31.58;;;17.38;;
79361;SDS011;68830;47.566;19.012;2023-05-21T00:03:47;30.45;;;15.50;;
79361;SDS011;68830;47.566;19.012;2023-05-21T00:06:50;31.60;;;15.68;;
79361;SDS011;68830;47.566;19.012;2023-05-21T00:09:53;29.65;;;15.93;;
79361;SDS011;68830;47.566;19.012;2023-05-21T00:12:55;35.20;;;15.98;;
79361;SDS011;68830;47.566;19.012;2023-05-21T00:15:58;33.63;;;16.63;;
79361;SDS011;68830;47.566;19.012;2023-05-21T00:19:01;28.55;;;15.55;;
79361;SDS011;68830;47.566;19.012;2023-05-21T00:22:04;34.50;;;18.33;;
79361;SDS011;68830;47.566;19.012;2023-05-21T00:25:06;30.00;;;16.20;;
79361;SDS011;68830;47.566;19.012;2023-05-21T00:28:10;30.80;;;15.90;;
79361;SDS011;68830;47.566;19.012;2023-05-21T00:31:13;33.63;;;17.35;;
79361;SDS011;68830;47.566;19.012;2023-05-21T00:34:16;30.70;;;15.80;;
79361;SDS011;68830;47.566;19.012;2023-05-21T00:37:19;31.95;;;15.57;;
79361;SDS011;68830;47.566;19.012;2023-05-21T00:40:21;30.13;;;15.70;;
79361;SDS011;68830;47.566;19.012;2023-05-21T00:43:23;27.90;;;15.23;;
79361;SDS011;68830;47.566;19.012;2023-05-21T00:46:28;32.83;;;15.63;;
79361;SDS011;68830;47.566;19.012;2023-05-21T00:49:30;37.53;;;17.38;;
79361;SDS011;68830;47.566;19.012;2023-05-21T00:52:32;31.42;;;16.17;;
79361;SDS011;68830;47.566;19.012;2023-05-21T00:55:42;38.28;;;16.77;;
79361;SDS011;68830;47.566;19.012;2023-05-21T00:58:46;33.90;;;16.17;;
79361;SDS011;68830;47.566;19.012;2023-05-21T01:01:50;32.28;;;15.35;;
79361;SDS011;68830;47.566;19.012;2023-05-21T01:04:56;34.33;;;16.00;;
79361;SDS011;68830;47.566;19.012;2023-05-21T01:08:00;41.08;;;16.52;;
79361;SDS011;68830;47.566;19.012;2023-05-21T01:11:03;33.92;;;14.88;;
79361;SDS011;68830;47.566;19.012;2023-05-21T01:14:06;34.38;;;16.73;;
79361;SDS011;68830;47.566;19.012;2023-05-21T01:17:11;30.77;;;15.63;;
79361;SDS011;68830;47.566;19.012;2023-05-21T01:20:16;31.98;;;15.18;;
79361;SDS011;68830;47.566;19.012;2023-05-21T01:23:21;31.27;;;15.10;;
79361;SDS011;68830;47.566;19.012;2023-05-21T01:26:23;31.67;;;15.07;;
79361;SDS011;68830;47.566;19.012;2023-05-21T01:29:26;33.67;;;16.50;;
79361;SDS011;68830;47.566;19.012;2023-05-21T01:32:30;29.67;;;15.07;;
79361;SDS011;68830;47.566;19.012;2023-05-21T01:35:37;30.52;;;15.38;;
79361;SDS011;68830;47.566;19.012;2023-05-21T01:38:46;35.38;;;15.27;;
79361;SDS011;68830;47.566;19.012;2023-05-21T01:41:53;28.90;;;16.08;;
79361;SDS011;68830;47.566;19.012;2023-05-21T01:44:56;42.75;;;17.58;;
79361;SDS011;68830;47.566;19.012;2023-05-21T01:48:00;30.95;;;15.88;;
79361;SDS011;68830;47.566;19.012;2023-05-21T01:51:04;28.33;;;14.07;;
79361;SDS011;68830;47.566;19.012;2023-05-21T01:54:08;31.52;;;15.25;;
79361;SDS011;68830;47.566;19.012;2023-05-21T01:57:10;27.88;;;14.05;;
79361;SDS011;68830;47.566;19.012;2023-05-21T02:00:13;38.63;;;15.27;;
79361;SDS011;68830;47.566;19.012;2023-05-21T02:03:15;30.48;;;14.75;;
79361;SDS011;68830;47.566;19.012;2023-05-21T02:06:18;28.65;;;15.55;;
79361;SDS011;68830;47.566;19.012;2023-05-21T02:09:21;24.75;;;13.57;;
79361;SDS011;68830;47.566;19.012;2023-05-21T02:12:23;28.50;;;16.08;;
79361;SDS011;68830;47.566;19.012;2023-05-21T02:15:26;29.20;;;14.68;;
79361;SDS011;68830;47.566;19.012;2023-05-21T02:18:28;29.35;;;14.00;;
79361;SDS011;68830;47.566;19.012;2023-05-21T02:21:30;28.55;;;13.85;;
79361;SDS011;68830;47.566;19.012;2023-05-21T02:24:34;30.40;;;15.13;;
79361;SDS011;68830;47.566;19.012;2023-05-21T02:27:36;34.60;;;15.20;;
79361;SDS011;68830;47.566;19.012;2023-05-21T02:30:39;32.38;;;15.55;;
79361;SDS011;68830;47.566;19.012;2023-05-21T02:33:41;28.80;;;14.15;;
79361;SDS011;68830;47.566;19.012;2023-05-21T02:36:43;25.33;;;14.60;;
79361;SDS011;68830;47.566;19.012;2023-05-21T02:39:50;29.92;;;13.88;;
79361;SDS011;68830;47.566;19.012;2023-05-21T02:42:51;34.83;;;14.88;;
79361;SDS011;68830;47.566;19.012;2023-05-21T02:45:55;30.77;;;14.10;;
79361;SDS011;68830;47.566;19.012;2023-05-21T02:48:57;31.20;;;15.77;;
79361;SDS011;68830;47.566;19.012;2023-05-21T02:51:59;32.33;;;15.50;;
79361;SDS011;68830;47.566;19.012;2023-05-21T02:55:03;27.35;;;14.23;;
79361;SDS011;68830;47.566;19.012;2023-05-21T02:58:05;27.30;;;14.30;;
79361;SDS011;68830;47.566;19.012;2023-05-21T03:01:08;28.30;;;13.85;;
79361;SDS011;68830;47.566;19.012;2023-05-21T03:04:10;28.00;;;13.77;;
79361;SDS011;68830;47.566;19.012;2023-05-21T03:07:13;30.05;;;15.13;;
79361;SDS011;68830;47.566;19.012;2023-05-21T03:10:16;25.75;;;14.23;;
79361;SDS011;68830;47.566;19.012;2023-05-21T03:13:18;27.23;;;13.75;;
79361;SDS011;68830;47.566;19.012;2023-05-21T03:16:21;32.65;;;13.95;;
79361;SDS011;68830;47.566;19.012;2023-05-21T03:19:23;29.35;;;14.25;;
79361;SDS011;68830;47.566;19.012;2023-05-21T03:22:26;30.63;;;14.48;;
79361;SDS011;68830;47.566;19.012;2023-05-21T03:25:29;29.65;;;14.60;;
79361;SDS011;68830;47.566;19.012;2023-05-21T03:28:33;28.08;;;14.38;;
79361;SDS011;68830;47.566;19.012;2023-05-21T03:31:35;29.63;;;14.23;;
79361;SDS011;68830;47.566;19.012;2023-05-21T03:34:37;29.20;;;14.27;;
79361;SDS011;68830;47.566;19.012;2023-05-21T03:37:39;24.33;;;12.77;;
79361;SDS011;68830;47.566;19.012;2023-05-21T03:40:42;30.85;;;15.13;;
79361;SDS011;68830;47.566;19.012;2023-05-21T03:43:44;28.05;;;13.57;;
79361;SDS011;68830;47.566;19.012;2023-05-21T03:46:46;29.95;;;14.23;;
79361;SDS011;68830;47.566;19.012;2023-05-21T03:49:48;26.55;;;13.68;;
79361;SDS011;68830;47.566;19.012;2023-05-21T03:52:52;32.35;;;14.65;;
79361;SDS011;68830;47.566;19.012;2023-05-21T03:55:56;28.13;;;14.38;;
79361;SDS011;68830;47.566;19.012;2023-05-21T03:58:57;29.70;;;14.70;;
79361;SDS011;68830;47.566;19.012;2023-05-21T04:01:59;26.23;;;12.25;;
79361;SDS011;68830;47.566;19.012;2023-05-21T04:05:02;26.80;;;14.27;;
79361;SDS011;68830;47.566;19.012;2023-05-21T04:08:05;31.02;;;14.27;;
79361;SDS011;68830;47.566;19.012;2023-05-21T04:11:09;22.15;;;12.30;;
79361;SDS011;68830;47.566;19.012;2023-05-21T04:14:11;26.83;;;13.85;;
79361;SDS011;68830;47.566;19.012;2023-05-21T04:17:13;26.60;;;13.18;;
79361;SDS011;68830;47.566;19.012;2023-05-21T04:20:16;24.80;;;12.73;;
79361;SDS011;68830;47.566;19.012;2023-05-21T04:23:18;29.30;;;14.57;;
79361;SDS011;68830;47.566;19.012;2023-05-21T04:26:25;23.65;;;14.02;;
79361;SDS011;68830;47.566;19.012;2023-05-21T04:29:28;22.95;;;11.82;;
79361;SDS011;68830;47.566;19.012;2023-05-21T04:32:30;24.38;;;13.55;;
79361;SDS011;68830;47.566;19.012;2023-05-21T04:35:34;26.63;;;12.82;;
79361;SDS011;68830;47.566;19.012;2023-05-21T04:38:36;23.75;;;13.13;;
79361;SDS011;68830;47.566;19.012;2023-05-21T04:41:41;23.20;;;12.05;;
79361;SDS011;68830;47.566;19.012;2023-05-21T04:44:44;21.27;;;12.35;;
79361;SDS011;68830;47.566;19.012;2023-05-21T04:47:46;25.90;;;13.13;;
79361;SDS011;68830;47.566;19.012;2023-05-21T04:50:48;23.73;;;11.88;;
79361;SDS011;68830;47.566;19.012;2023-05-21T04:53:50;25.55;;;12.90;;
79361;SDS011;68830;47.566;19.012;2023-05-21T04:56:53;30.70;;;12.98;;
79361;SDS011;68830;47.566;19.012;2023-05-21T04:59:56;27.50;;;13.20;;
79361;SDS011;68830;47.566;19.012;2023-05-21T05:02:58;24.63;;;12.75;;
79361;SDS011;68830;47.566;19.012;2023-05-21T05:06:00;22.63;;;11.20;;
79361;SDS011;68830;47.566;19.012;2023-05-21T05:09:04;25.52;;;12.05;;
79361;SDS011;68830;47.566;19.012;2023-05-21T05:12:08;26.92;;;13.30;;
79361;SDS011;68830;47.566;19.012;2023-05-21T05:15:10;27.05;;;12.68;;
79361;SDS011;68830;47.566;19.012;2023-05-21T05:18:14;26.08;;;13.05;;
79361;SDS011;68830;47.566;19.012;2023-05-21T05:21:16;22.75;;;13.20;;
79361;SDS011;68830;47.566;19.012;2023-05-21T05:24:19;23.13;;;11.48;;
79361;SDS011;68830;47.566;19.012;2023-05-21T05:27:22;25.55;;;12.20;;
79361;SDS011;68830;47.566;19.012;2023-05-21T05:30:25;23.67;;;12.20;;
79361;SDS011;68830;47.566;19.012;2023-05-21T05:33:27;27.73;;;11.73;;
79361;SDS011;68830;47.566;19.012;2023-05-21T05:36:29;20.05;;;10.45;;
79361;SDS011;68830;47.566;19.012;2023-05-21T05:39:31;26.10;;;12.77;;
79361;SDS011;68830;47.566;19.012;2023-05-21T05:42:35;20.55;;;11.60;;
79361;SDS011;68830;47.566;19.012;2023-05-21T05:45:37;29.60;;;13.15;;
79361;SDS011;68830;47.566;19.012;2023-05-21T05:48:40;20.23;;;11.63;;
79361;SDS011;68830;47.566;19.012;2023-05-21T05:51:42;23.65;;;13.02;;
79361;SDS011;68830;47.566;19.012;2023-05-21T05:54:43;22.90;;;12.60;;
79361;SDS011;68830;47.566;19.012;2023-05-21T05:57:47;22.30;;;11.43;;
79361;SDS011;68830;47.566;19.012;2023-05-21T06:00:50;23.67;;;10.93;;
79361;SDS011;68830;47.566;19.012;2023-05-21T06:03:52;26.55;;;12.70;;
79361;SDS011;68830;47.566;19.012;2023-05-21T06:06:54;23.15;;;11.85;;
79361;SDS011;68830;47.566;19.012;2023-05-21T06:09:57;23.38;;;11.40;;
79361;SDS011;68830;47.566;19.012;2023-05-21T06:13:04;24.75;;;11.18;;
79361;SDS011;68830;47.566;19.012;2023-05-21T06:16:06;20.52;;;10.90;;
79361;SDS011;68830;47.566;19.012;2023-05-21T06:19:11;19.92;;;11.80;;
79361;SDS011;68830;47.566;19.012;2023-05-21T06:22:13;19.83;;;11.90;;
79361;SDS011;68830;47.566;19.012;2023-05-21T06:25:15;17.80;;;10.65;;
79361;SDS011;68830;47.566;19.012;2023-05-21T06:28:18;22.38;;;10.48;;
79361;SDS011;68830;47.566;19.012;2023-05-21T06:31:20;19.95;;;9.48;;
79361;SDS011;68830;47.566;19.012;2023-05-21T06:34:22;18.75;;;11.13;;
79361;SDS011;68830;47.566;19.012;2023-05-21T06:37:24;19.45;;;10.63;;
79361;SDS011;68830;47.566;19.012;2023-05-21T06:40:27;17.58;;;10.23;;
79361;SDS011;68830;47.566;19.012;2023-05-21T06:43:30;20.00;;;10.85;;
79361;SDS011;68830;47.566;19.012;2023-05-21T06:46:32;16.58;;;9.95;;
79361;SDS011;68830;47.566;19.012;2023-05-21T06:49:36;15.90;;;10.18;;
79361;SDS011;68830;47.566;19.012;2023-05-21T06:52:38;17.05;;;10.52;;
79361;SDS011;68830;47.566;19.012;2023-05-21T06:55:40;16.73;;;9.95;;
79361;SDS011;68830;47.566;19.012;2023-05-21T06:58:46;19.08;;;10.70;;
79361;SDS011;68830;47.566;19.012;2023-05-21T07:01:48;19.27;;;9.52;;
79361;SDS011;68830;47.566;19.012;2023-05-21T07:04:50;21.35;;;10.75;;
79361;SDS011;68830;47.566;19.012;2023-05-21T07:07:54;20.67;;;10.13;;
79361;SDS011;68830;47.566;19.012;2023-05-21T07:10:55;15.25;;;9.32;;
79361;SDS011;68830;47.566;19.012;2023-05-21T07:13:59;19.85;;;9.60;;
79361;SDS011;68830;47.566;19.012;2023-05-21T07:17:02;18.38;;;10.25;;
79361;SDS011;68830;47.566;19.012;2023-05-21T07:20:05;19.35;;;10.05;;
79361;SDS011;68830;47.566;19.012;2023-05-21T07:23:08;15.88;;;10.40;;
79361;SDS011;68830;47.566;19.012;2023-05-21T07:26:10;16.40;;;10.05;;
79361;SDS011;68830;47.566;19.012;2023-05-21T07:29:14;20.27;;;10.27;;
79361;SDS011;68830;47.566;19.012;2023-05-21T07:32:16;17.35;;;10.38;;
79361;SDS011;68830;47.566;19.012;2023-05-21T07:35:18;15.50;;;9.48;;
79361;SDS011;68830;47.566;19.012;2023-05-21T07:38:21;16.15;;;9.55;;
79361;SDS011;68830;47.566;19.012;2023-05-21T07:41:22;17.63;;;10.38;;
79361;SDS011;68830;47.566;19.012;2023-05-21T07:44:26;16.95;;;10.23;;
79361;SDS011;68830;47.566;19.012;2023-05-21T07:47:28;19.55;;;10.93;;
79361;SDS011;68830;47.566;19.012;2023-05-21T07:50:30;19.50;;;10.15;;
79361;SDS011;68830;47.566;19.012;2023-05-21T07:53:32;16.27;;;9.57;;
79361;SDS011;68830;47.566;19.012;2023-05-21T07:56:34;18.63;;;10.70;;
79361;SDS011;68830;47.566;19.012;2023-05-21T07:59:42;19.88;;;10.57;;
79361;SDS011;68830;47.566;19.012;2023-05-21T08:02:44;14.35;;;9.85;;
79361;SDS011;68830;47.566;19.012;2023-05-21T08:05:47;16.02;;;11.18;;
79361;SDS011;68830;47.566;19.012;2023-05-21T08:08:49;16.08;;;10.55;;
79361;SDS011;68830;47.566;19.012;2023-05-21T08:11:51;19.75;;;10.88;;
79361;SDS011;68830;47.566;19.012;2023-05-21T08:14:55;15.75;;;9.95;;
79361;SDS011;68830;47.566;19.012;2023-05-21T08:17:57;17.95;;;11.82;;
79361;SDS011;68830;47.566;19.012;2023-05-21T08:20:59;16.60;;;10.23;;
79361;SDS011;68830;47.566;19.012;2023-05-21T08:24:02;15.07;;;10.20;;
79361;SDS011;68830;47.566;19.012;2023-05-21T08:27:04;15.50;;;10.65;;
79361;SDS011;68830;47.566;19.012;2023-05-21T08:30:08;16.33;;;11.25;;
79361;SDS011;68830;47.566;19.012;2023-05-21T08:33:12;13.65;;;8.57;;
79361;SDS011;68830;47.566;19.012;2023-05-21T08:36:14;16.73;;;9.73;;
79361;SDS011;68830;47.566;19.012;2023-05-21T08:39:16;13.95;;;10.20;;
79361;SDS011;68830;47.566;19.012;2023-05-21T08:42:22;16.48;;;9.52;;
79361;SDS011;68830;47.566;19.012;2023-05-21T08:45:40;13.65;;;9.43;;
79361;SDS011;68830;47.566;19.012;2023-05-21T08:48:45;15.88;;;9.75;;
79361;SDS011;68830;47.566;19.012;2023-05-21T08:51:47;17.15;;;10.07;;
79361;SDS011;68830;47.566;19.012;2023-05-21T08:54:50;17.45;;;10.02;;
79361;SDS011;68830;47.566;19.012;2023-05-21T08:57:53;19.30;;;9.63;;
79361;SDS011;68830;47.566;19.012;2023-05-21T09:00:57;14.23;;;9.60;;
79361;SDS011;68830;47.566;19.012;2023-05-21T09:03:59;16.52;;;10.73;;
79361;SDS011;68830;47.566;19.012;2023-05-21T09:07:19;15.98;;;9.52;;
79361;SDS011;68830;47.566;19.012;2023-05-21T09:10:23;21.50;;;9.18;;
79361;SDS011;68830;47.566;19.012;2023-05-21T09:13:30;13.07;;;8.05;;
79361;SDS011;68830;47.566;19.012;2023-05-21T09:16:35;16.50;;;9.50;;
79361;SDS011;68830;47.566;19.012;2023-05-21T09:19:37;14.73;;;9.48;;
79361;SDS011;68830;47.566;19.012;2023-05-21T09:22:40;15.20;;;10.57;;
79361;SDS011;68830;47.566;19.012;2023-05-21T09:25:44;10.68;;;7.70;;
79361;SDS011;68830;47.566;19.012;2023-05-21T09:28:47;17.23;;;9.15;;
79361;SDS011;68830;47.566;19.012;2023-05-21T09:31:53;15.80;;;8.10;;
79361;SDS011;68830;47.566;19.012;2023-05-21T09:34:55;12.98;;;8.90;;
79361;SDS011;68830;47.566;19.012;2023-05-21T09:38:07;18.52;;;10.98;;
79361;SDS011;68830;47.566;19.012;2023-05-21T09:41:09;14.43;;;8.63;;
79361;SDS011;68830;47.566;19.012;2023-05-21T09:44:12;13.48;;;9.68;;
79361;SDS011;68830;47.566;19.012;2023-05-21T09:47:19;11.70;;;9.00;;
79361;SDS011;68830;47.566;19.012;2023-05-21T09:50:22;15.50;;;9.43;;
79361;SDS011;68830;47.566;19.012;2023-05-21T09:53:26;13.73;;;9.70;;
79361;SDS011;68830;47.566;19.012;2023-05-21T09:56:29;16.23;;;9.35;;
79361;SDS011;68830;47.566;19.012;2023-05-21T09:59:35;14.48;;;9.02;;
79361;SDS011;68830;47.566;19.012;2023-05-21T10:05:45;15.48;;;9.27;;
79361;SDS011;68830;47.566;19.012;2023-05-21T10:08:47;17.65;;;10.57;;
79361;SDS011;68830;47.566;19.012;2023-05-21T10:11:54;15.80;;;8.85;;
79361;SDS011;68830;47.566;19.012;2023-05-21T10:14:58;19.10;;;10.93;;
79361;SDS011;68830;47.566;19.012;2023-05-21T10:18:05;15.52;;;10.13;;
79361;SDS011;68830;47.566;19.012;2023-05-21T10:21:07;14.18;;;10.07;;
79361;SDS011;68830;47.566;19.012;2023-05-21T10:24:09;14.30;;;9.20;;
79361;SDS011;68830;47.566;19.012;2023-05-21T10:27:12;14.73;;;9.93;;
79361;SDS011;68830;47.566;19.012;2023-05-21T10:30:14;13.35;;;9.13;;
79361;SDS011;68830;47.566;19.012;2023-05-21T10:33:21;19.10;;;9.63;;
79361;SDS011;68830;47.566;19.012;2023-05-21T10:36:25;14.32;;;8.70;;
79361;SDS011;68830;47.566;19.012;2023-05-21T10:39:32;19.60;;;8.93;;
79361;SDS011;68830;47.566;19.012;2023-05-21T10:42:51;11.60;;;7.70;;
79361;SDS011;68830;47.566;19.012;2023-05-21T10:46:23;13.50;;;8.23;;
79361;SDS011;68830;47.566;19.012;2023-05-21T10:49:45;17.48;;;9.15;;
79361;SDS011;68830;47.566;19.012;2023-05-21T10:53:01;11.27;;;9.10;;
79361;SDS011;68830;47.566;19.012;2023-05-21T10:56:15;12.95;;;8.13;;
79361;SDS011;68830;47.566;19.012;2023-05-21T10:59:27;13.38;;;9.02;;
79361;SDS011;68830;47.566;19.012;2023-05-21T11:02:36;13.80;;;8.95;;
79361;SDS011;68830;47.566;19.012;2023-05-21T11:05:49;16.02;;;8.40;;
79361;SDS011;68830;47.566;19.012;2023-05-21T11:08:53;14.45;;;9.07;;
79361;SDS011;68830;47.566;19.012;2023-05-21T11:11:56;11.93;;;8.00;;
79361;SDS011;68830;47.566;19.012;2023-05-21T11:14:59;11.75;;;7.95;;
79361;SDS011;68830;47.566;19.012;2023-05-21T11:18:01;11.32;;;7.95;;
79361;SDS011;68830;47.566;19.012;2023-05-21T11:21:04;16.92;;;10.32;;
79361;SDS011;68830;47.566;19.012;2023-05-21T11:24:07;13.05;;;8.00;;
79361;SDS011;68830;47.566;19.012;2023-05-21T11:27:11;17.38;;;9.38;;
79361;SDS011;68830;47.566;19.012;2023-05-21T11:30:14;16.92;;;10.23;;
79361;SDS011;68830;47.566;19.012;2023-05-21T11:33:17;10.60;;;8.35;;
79361;SDS011;68830;47.566;19.012;2023-05-21T11:36:21;13.02;;;8.98;;
79361;SDS011;68830;47.566;19.012;2023-05-21T11:39:24;16.67;;;9.25;;
79361;SDS011;68830;47.566;19.012;2023-05-21T11:42:26;10.70;;;8.85;;
79361;SDS011;68830;47.566;19.012;2023-05-21T11:45:31;14.68;;;9.00;;
79361;SDS011;68830;47.566;19.012;2023-05-21T11:48:33;14.95;;;10.10;;
79361;SDS011;68830;47.566;19.012;2023-05-21T11:51:39;12.85;;;9.07;;
79361;SDS011;68830;47.566;19.012;2023-05-21T11:54:43;12.55;;;8.68;;
79361;SDS011;68830;47.566;19.012;2023-05-21T11:57:51;15.60;;;10.00;;
79361;SDS011;68830;47.566;19.012;2023-05-21T12:00:55;13.10;;;9.60;;
79361;SDS011;68830;47.566;19.012;2023-05-21T12:03:57;12.48;;;8.15;;
79361;SDS011;68830;47.566;19.012;2023-05-21T12:07:01;14.32;;;9.70;;
79361;SDS011;68830;47.566;19.012;2023-05-21T12:10:04;13.68;;;10.23;;
79361;SDS011;68830;47.566;19.012;2023-05-21T12:13:07;17.80;;;9.73;;
79361;SDS011;68830;47.566;19.012;2023-05-21T12:16:11;14.30;;;9.27;;
79361;SDS011;68830;47.566;19.012;2023-05-21T12:19:15;13.88;;;9.52;;
79361;SDS011;68830;47.566;19.012;2023-05-21T12:22:19;13.00;;;9.05;;
79361;SDS011;68830;47.566;19.012;2023-05-21T12:25:21;17.92;;;11.90;;
79361;SDS011;68830;47.566;19.012;2023-05-21T12:28:23;12.68;;;9.30;;
79361;SDS011;68830;47.566;19.012;2023-05-21T12:31:25;12.18;;;9.98;;
79361;SDS011;68830;47.566;19.012;2023-05-21T12:34:36;14.60;;;10.00;;
79361;SDS011;68830;47.566;19.012;2023-05-21T12:37:45;11.85;;;9.25;;
79361;SDS011;68830;47.566;19.012;2023-05-21T12:40:47;14.80;;;9.82;;
79361;SDS011;68830;47.566;19.012;2023-05-21T12:43:50;13.75;;;9.25;;
79361;SDS011;68830;47.566;19.012;2023-05-21T12:46:52;16.48;;;10.60;;
79361;SDS011;68830;47.566;19.012;2023-05-21T12:49:55;15.77;;;9.98;;
79361;SDS011;68830;47.566;19.012;2023-05-21T12:53:02;13.35;;;11.00;;
79361;SDS011;68830;47.566;19.012;2023-05-21T12:56:07;15.90;;;10.65;;
79361;SDS011;68830;47.566;19.012;2023-05-21T12:59:13;12.55;;;9.95;;
79361;SDS011;68830;47.566;19.012;2023-05-21T13:02:19;15.57;;;10.43;;
79361;SDS011;68830;47.566;19.012;2023-05-21T13:05:22;15.18;;;9.95;;
79361;SDS011;68830;47.566;19.012;2023-05-21T13:08:25;16.15;;;10.73;;
79361;SDS011;68830;47.566;19.012;2023-05-21T13:11:27;12.18;;;9.15;;
79361;SDS011;68830;47.566;19.012;2023-05-21T13:14:29;11.98;;;9.32;;
79361;SDS011;68830;47.566;19.012;2023-05-21T13:17:35;16.15;;;10.57;;
79361;SDS011;68830;47.566;19.012;2023-05-21T13:20:37;14.43;;;9.88;;
79361;SDS011;68830;47.566;19.012;2023-05-21T13:23:40;16.25;;;10.82;;
79361;SDS011;68830;47.566;19.012;2023-05-21T13:26:42;18.52;;;9.48;;
79361;SDS011;68830;47.566;19.012;2023-05-21T13:29:44;18.52;;;11.57;;
79361;SDS011;68830;47.566;19.012;2023-05-21T13:32:46;15.02;;;10.60;;
79361;SDS011;68830;47.566;19.012;2023-05-21T13:35:49;15.65;;;10.00;;
79361;SDS011;68830;47.566;19.012;2023-05-21T13:38:54;14.43;;;10.50;;
79361;SDS011;68830;47.566;19.012;2023-05-21T13:41:56;14.43;;;9.85;;
79361;SDS011;68830;47.566;19.012;2023-05-21T13:45:00;13.88;;;10.20;;
79361;SDS011;68830;47.566;19.012;2023-05-21T13:48:02;16.50;;;9.95;;
79361;SDS011;68830;47.566;19.012;2023-05-21T13:51:05;15.88;;;10.50;;
79361;SDS011;68830;47.566;19.012;2023-05-21T13:54:08;13.98;;;8.85;;
79361;SDS011;68830;47.566;19.012;2023-05-21T13:57:10;19.35;;;10.60;;
79361;SDS011;68830;47.566;19.012;2023-05-21T14:00:12;12.73;;;9.23;;
79361;SDS011;68830;47.566;19.012;2023-05-21T14:03:16;15.48;;;10.38;;
79361;SDS011;68830;47.566;19.012;2023-05-21T14:06:19;17.85;;;11.27;;
79361;SDS011;68830;47.566;19.012;2023-05-21T14:09:22;13.15;;;9.52;;
79361;SDS011;68830;47.566;19.012;2023-05-21T14:12:28;15.43;;;10.10;;
79361;SDS011;68830;47.566;19.012;2023-05-21T14:15:30;17.95;;;10.05;;
79361;SDS011;68830;47.566;19.012;2023-05-21T14:18:32;14.18;;;9.60;;
79361;SDS011;68830;47.566;19.012;2023-05-21T14:21:35;16.48;;;10.13;;
79361;SDS011;68830;47.566;19.012;2023-05-21T14:24:38;21.20;;;9.63;;
79361;SDS011;68830;47.566;19.012;2023-05-21T14:27:40;13.73;;;9.90;;
79361;SDS011;68830;47.566;19.012;2023-05-21T14:30:43;17.08;;;10.05;;
79361;SDS011;68830;47.566;19.012;2023-05-21T14:33:44;15.75;;;9.57;;
79361;SDS011;68830;47.566;19.012;2023-05-21T14:36:46;20.40;;;10.07;;
79361;SDS011;68830;47.566;19.012;2023-05-21T14:39:50;27.38;;;11.05;;
79361;SDS011;68830;47.566;19.012;2023-05-21T14:42:51;12.27;;;9.30;;
79361;SDS011;68830;47.566;19.012;2023-05-21T14:45:54;19.35;;;9.98;;
79361;SDS011;68830;47.566;19.012;2023-05-21T14:48:55;13.48;;;9.05;;
79361;SDS011;68830;47.566;19.012;2023-05-21T14:52:02;12.52;;;9.38;;
79361;SDS011;68830;47.566;19.012;2023-05-21T14:55:05;13.52;;;8.90;;
79361;SDS011;68830;47.566;19.012;2023-05-21T14:58:08;12.80;;;9.90;;
79361;SDS011;68830;47.566;19.012;2023-05-21T15:01:10;13.65;;;9.63;;
79361;SDS011;68830;47.566;19.012;2023-05-21T15:04:12;12.63;;;9.02;;
79361;SDS011;68830;47.566;19.012;2023-05-21T15:07:14;15.43;;;10.00;;
79361;SDS011;68830;47.566;19.012;2023-05-21T15:10:18;12.68;;;9.55;;
79361;SDS011;68830;47.566;19.012;2023-05-21T15:13:21;18.58;;;10.80;;
79361;SDS011;68830;47.566;19.012;2023-05-21T15:16:22;13.50;;;10.27;;
79361;SDS011;68830;47.566;19.012;2023-05-21T15:19:24;14.52;;;9.77;;
79361;SDS011;68830;47.566;19.012;2023-05-21T15:22:26;12.75;;;8.68;;
79361;SDS011;68830;47.566;19.012;2023-05-21T15:25:30;15.25;;;9.95;;
79361;SDS011;68830;47.566;19.012;2023-05-21T15:28:32;15.00;;;8.30;;
79361;SDS011;68830;47.566;19.012;2023-05-21T15:31:34;18.83;;;10.30;;
79361;SDS011;68830;47.566;19.012;2023-05-21T15:34:36;13.10;;;9.30;;
79361;SDS011;68830;47.566;19.012;2023-05-21T15:37:38;17.90;;;9.77;;
79361;SDS011;68830;47.566;19.012;2023-05-21T15:40:42;15.32;;;9.70;;
79361;SDS011;68830;47.566;19.012;2023-05-21T15:43:44;14.02;;;9.85;;
79361;SDS011;68830;47.566;19.012;2023-05-21T15:46:46;15.77;;;10.60;;
79361;SDS011;68830;47.566;19.012;2023-05-21T15:49:51;17.38;;;10.80;;
79361;SDS011;68830;47.566;19.012;2023-05-21T15:52:53;14.05;;;9.85;;
79361;SDS011;68830;47.566;19.012;2023-05-21T15:55:57;13.23;;;9.52;;
79361;SDS011;68830;47.566;19.012;2023-05-21T15:58:59;16.95;;;9.95;;
79361;SDS011;68830;47.566;19.012;2023-05-21T16:02:01;15.40;;;10.13;;
79361;SDS011;68830;47.566;19.012;2023-05-21T16:05:04;14.73;;;9.25;;
79361;SDS011;68830;47.566;19.012;2023-05-21T16:08:06;15.35;;;9.38;;
79361;SDS011;68830;47.566;19.012;2023-05-21T16:14:14;13.50;;;9.73;;
79361;SDS011;68830;47.566;19.012;2023-05-21T16:17:16;14.45;;;9.25;;
79361;SDS011;68830;47.566;19.012;2023-05-21T16:20:20;15.68;;;9.95;;
79361;SDS011;68830;47.566;19.012;2023-05-21T16:23:22;17.83;;;10.75;;
79361;SDS011;68830;47.566;19.012;2023-05-21T16:26:26;15.82;;;11.18;;
79361;SDS011;68830;47.566;19.012;2023-05-21T16:29:28;17.00;;;9.57;;
79361;SDS011;68830;47.566;19.012;2023-05-21T16:32:30;14.15;;;9.75;;
79361;SDS011;68830;47.566;19.012;2023-05-21T16:35:33;11.63;;;8.95;;
79361;SDS011;68830;47.566;19.012;2023-05-21T16:38:35;12.23;;;8.63;;
79361;SDS011;68830;47.566;19.012;2023-05-21T16:41:39;18.27;;;10.18;;
79361;SDS011;68830;47.566;19.012;2023-05-21T16:44:43;15.63;;;10.15;;
79361;SDS011;68830;47.566;19.012;2023-05-21T16:47:46;14.23;;;8.98;;
79361;SDS011;68830;47.566;19.012;2023-05-21T16:50:48;15.27;;;10.18;;
79361;SDS011;68830;47.566;19.012;2023-05-21T16:53:50;15.23;;;9.15;;
79361;SDS011;68830;47.566;19.012;2023-05-21T16:56:54;11.82;;;9.27;;
79361;SDS011;68830;47.566;19.012;2023-05-21T16:59:56;12.65;;;9.15;;
79361;SDS011;68830;47.566;19.012;2023-05-21T17:02:58;14.63;;;9.55;;
79361;SDS011;68830;47.566;19.012;2023-05-21T17:06:00;14.85;;;9.65;;
79361;SDS011;68830;47.566;19.012;2023-05-21T17:09:03;16.85;;;10.52;;
79361;SDS011;68830;47.566;19.012;2023-05-21T17:12:07;16.90;;;10.45;;
79361;SDS011;68830;47.566;19.012;2023-05-21T17:15:09;16.85;;;10.77;;
79361;SDS011;68830;47.566;19.012;2023-05-21T17:18:11;15.95;;;10.27;;
79361;SDS011;68830;47.566;19.012;2023-05-21T17:21:13;14.60;;;10.27;;
79361;SDS011;68830;47.566;19.012;2023-05-21T17:24:15;16.25;;;9.90;;
79361;SDS011;68830;47.566;19.012;2023-05-21T17:27:20;18.27;;;9.57;;
79361;SDS011;68830;47.566;19.012;2023-05-21T17:30:21;18.85;;;10.32;;
79361;SDS011;68830;47.566;19.012;2023-05-21T17:33:24;15.80;;;10.13;;
79361;SDS011;68830;47.566;19.012;2023-05-21T17:36:26;16.80;;;10.95;;
79361;SDS011;68830;47.566;19.012;2023-05-21T17:39:28;20.50;;;11.82;;
79361;SDS011;68830;47.566;19.012;2023-05-21T17:42:33;15.82;;;11.40;;
79361;SDS011;68830;47.566;19.012;2023-05-21T17:45:34;26.48;;;13.00;;
79361;SDS011;68830;47.566;19.012;2023-05-21T17:48:36;15.80;;;10.80;;